createdAt,value
2022-11-20T00:01:21.599Z,100196.69
2022-11-20T00:03:48.648Z,100191.91
2022-11-20T00:06:17.777Z,100197.31
2022-11-20T00:08:45.094Z,100190.78
2022-11-20T00:11:16.919Z,100191.50
2022-11-20T00:13:48.762Z,100195.69
2022-11-20T00:16:18.378Z,100195.69
2022-11-20T00:18:45.831Z,100195.03
2022-11-20T00:21:14.962Z,100189.47
2022-11-20T00:23:42.528Z,100188.25
2022-11-20T00:26:11.627Z,100198.31
2022-11-20T00:28:38.519Z,100190.31
2022-11-20T00:31:11.300Z,100185.97
2022-11-20T00:33:38.166Z,100187.03
2022-11-20T00:36:07.834Z,100194.66
2022-11-20T00:38:34.974Z,100201.97
2022-11-20T00:41:05.710Z,100192.31
2022-11-20T00:43:32.247Z,100190.53
2022-11-20T00:46:00.147Z,100192.13
2022-11-20T00:48:27.137Z,100195.06
2022-11-20T00:50:54.548Z,100191.72
2022-11-20T00:53:21.996Z,100194.56
2022-11-20T00:55:58.496Z,100187.53
2022-11-20T00:58:29.128Z,100173.31
2022-11-20T01:01:02.114Z,100178.25
2022-11-20T01:03:28.904Z,100173.50
2022-11-20T01:05:55.355Z,100174.56
2022-11-20T01:08:21.912Z,100171.63
2022-11-20T01:10:48.396Z,100163.34
2022-11-20T01:13:33.301Z,100168.81
2022-11-20T01:16:13.781Z,100170.22
2022-11-20T01:18:43.131Z,100160.28
2022-11-20T01:21:14.044Z,100154.06
2022-11-20T01:23:42.796Z,100147.59
2022-11-20T01:26:16.754Z,100149.84
2022-11-20T01:28:43.863Z,100143.06
2022-11-20T01:31:23.669Z,100140.84
2022-11-20T01:33:52.497Z,100145.75
2022-11-20T01:36:20.861Z,100141.69
2022-11-20T01:38:47.696Z,100139.56
2022-11-20T01:41:36.098Z,100143.66
2022-11-20T01:44:04.867Z,100149.44
2022-11-20T01:46:37.734Z,100155.78
2022-11-20T01:49:13.169Z,100156.91
2022-11-20T01:52:04.031Z,100158.88
2022-11-20T01:54:40.430Z,100158.16
2022-11-20T01:57:09.946Z,100158.88
2022-11-20T01:59:42.818Z,100155.50
2022-11-20T02:02:09.383Z,100163.78
2022-11-20T02:04:36.537Z,100156.91
2022-11-20T02:07:06.151Z,100161.56
2022-11-20T02:09:32.741Z,100159.44
2022-11-20T02:11:59.889Z,100158.03
2022-11-20T02:14:27.418Z,100159.41
2022-11-20T02:16:55.995Z,100148.16
2022-11-20T02:19:28.832Z,100146.19
2022-11-20T02:22:19.464Z,100141.56
2022-11-20T02:24:47.138Z,100138.88
2022-11-20T02:27:15.042Z,100142.53
2022-11-20T02:29:51.570Z,100138.56
2022-11-20T02:32:22.166Z,100131.25
2022-11-20T02:34:49.867Z,100136.22
2022-11-20T02:37:16.877Z,100134.75
2022-11-20T02:39:45.656Z,100127.72
2022-11-20T02:42:12.170Z,100136.63
2022-11-20T02:44:38.722Z,100132.66
2022-11-20T02:47:05.428Z,100121.97
2022-11-20T02:49:32.227Z,100133.09
2022-11-20T02:51:58.726Z,100138.13
2022-11-20T02:54:25.892Z,100130.53
2022-11-20T02:56:53.262Z,100129.84
2022-11-20T02:59:20.173Z,100125.63
2022-11-20T03:04:12.258Z,100132.38
2022-11-20T03:06:38.812Z,100141.56
2022-11-20T03:09:05.262Z,100130.28
2022-11-20T03:11:31.803Z,100138.31
2022-11-20T03:13:58.277Z,100131.16
2022-11-20T03:16:25.051Z,100133.25
2022-11-20T03:18:53.388Z,100129.56
2022-11-20T03:21:19.861Z,100134.09
2022-11-20T03:23:46.349Z,100127.91
2022-11-20T03:26:18.309Z,100134.66
2022-11-20T03:28:50.615Z,100135.78
2022-11-20T03:31:18.871Z,100130.84
2022-11-20T03:33:45.687Z,100131.00
2022-11-20T03:36:16.455Z,100127.75
2022-11-20T03:38:43.377Z,100129.84
2022-11-20T03:41:16.489Z,100131.56
2022-11-20T03:43:43.019Z,100127.84
2022-11-20T03:46:09.697Z,100120.13
2022-11-20T03:48:36.241Z,100124.50
2022-11-20T03:51:17.726Z,100113.25
2022-11-20T03:53:46.246Z,100120.69
2022-11-20T03:56:14.442Z,100135.19
2022-11-20T03:58:41.968Z,100123.91
2022-11-20T04:01:11.406Z,100121.22
2022-11-20T04:03:39.693Z,100124.56
2022-11-20T04:06:09.642Z,100122.28
2022-11-20T04:08:36.173Z,100129.72
2022-11-20T04:11:12.777Z,100120.84
2022-11-20T04:13:39.933Z,100131.94
2022-11-20T04:16:07.766Z,100126.84
2022-11-20T04:18:35.016Z,100125.81
2022-11-20T04:21:01.886Z,100129.66
2022-11-20T04:23:29.105Z,100127.28
2022-11-20T04:25:56.033Z,100117.91
2022-11-20T04:28:22.546Z,100121.00
2022-11-20T04:30:49.043Z,100120.44
2022-11-20T04:33:15.659Z,100120.84
2022-11-20T04:35:42.178Z,100120.75
2022-11-20T04:38:08.689Z,100122.81
2022-11-20T04:40:35.704Z,100127.59
2022-11-20T04:43:02.202Z,100117.03
2022-11-20T04:45:28.701Z,100129.78
2022-11-20T04:47:55.279Z,100129.50
2022-11-20T04:50:21.775Z,100127.09
2022-11-20T04:52:48.244Z,100122.78
2022-11-20T04:55:14.774Z,100122.81
2022-11-20T04:57:41.306Z,100118.28
2022-11-20T05:00:08.478Z,100116.13
2022-11-20T05:02:35.094Z,100113.13
2022-11-20T05:05:01.688Z,100112.84
2022-11-20T05:07:28.221Z,100109.75
2022-11-20T05:09:54.691Z,100100.78
2022-11-20T05:12:21.212Z,100111.16
2022-11-20T05:14:47.685Z,100098.97
2022-11-20T05:17:14.395Z,100113.59
2022-11-20T05:19:40.900Z,100095.59
2022-11-20T05:22:07.403Z,100101.19
2022-11-20T05:24:33.926Z,100093.78
2022-11-20T05:27:00.414Z,100097.81
2022-11-20T05:29:26.992Z,100089.56
2022-11-20T05:31:53.506Z,100092.22
2022-11-20T05:34:20.055Z,100097.81
2022-11-20T05:36:46.564Z,100099.78
2022-11-20T05:39:13.161Z,100099.53
2022-11-20T05:41:39.703Z,100095.44
2022-11-20T05:44:06.204Z,100093.72
2022-11-20T05:46:32.771Z,100093.16
2022-11-20T05:48:59.718Z,100085.16
2022-11-20T05:51:26.852Z,100084.44
2022-11-20T05:53:53.472Z,100082.50
2022-11-20T05:56:22.260Z,100088.22
2022-11-20T05:58:49.678Z,100076.41
2022-11-20T06:01:19.462Z,100079.13
2022-11-20T06:03:48.602Z,100076.56
2022-11-20T06:06:16.373Z,100072.75
2022-11-20T06:08:43.033Z,100072.41
2022-11-20T06:11:12.023Z,100065.88
2022-11-20T06:13:42.090Z,100069.50
2022-11-20T06:16:09.781Z,100071.06
2022-11-20T06:18:36.368Z,100076.19
2022-11-20T06:21:06.817Z,100082.41
2022-11-20T06:23:34.695Z,100079.63
2022-11-20T06:26:06.188Z,100085.88
2022-11-20T06:28:33.130Z,100081.38
2022-11-20T06:31:00.132Z,100076.19
2022-11-20T06:33:27.097Z,100074.38
2022-11-20T06:35:59.560Z,100068.06
2022-11-20T06:38:28.017Z,100069.75
2022-11-20T06:40:55.353Z,100065.13
2022-11-20T06:43:22.783Z,100069.50
2022-11-20T06:45:54.726Z,100068.06
2022-11-20T06:48:21.973Z,100061.38
2022-11-20T06:50:48.783Z,100062.25
2022-11-20T06:53:15.890Z,100065.28
2022-11-20T06:55:47.254Z,100053.38
2022-11-20T06:58:15.143Z,100055.28
2022-11-20T07:00:41.981Z,100060.19
2022-11-20T07:03:10.361Z,100065.53
2022-11-20T07:05:37.430Z,100065.56
2022-11-20T07:08:04.402Z,100066.88
2022-11-20T07:10:30.922Z,100062.72
2022-11-20T07:12:57.459Z,100054.91
2022-11-20T07:15:26.049Z,100061.53
2022-11-20T07:17:52.887Z,100064.22
2022-11-20T07:20:19.352Z,100054.53
2022-11-20T07:22:46.027Z,100057.94
2022-11-20T07:25:12.690Z,100064.78
2022-11-20T07:27:39.205Z,100057.22
2022-11-20T07:30:06.326Z,100058.25
2022-11-20T07:32:32.806Z,100042.81
2022-11-20T07:34:59.915Z,100045.94
2022-11-20T07:37:26.454Z,100042.81
2022-11-20T07:39:52.931Z,100043.38
2022-11-20T07:42:19.418Z,100044.75
2022-11-20T07:44:45.983Z,100044.50
2022-11-20T07:47:12.477Z,100043.59
2022-11-20T07:49:38.969Z,100034.41
2022-11-20T07:52:05.574Z,100043.31
2022-11-20T07:54:32.087Z,100036.88
2022-11-20T07:56:58.663Z,100034.22
2022-11-20T07:59:25.692Z,100043.06
2022-11-20T08:01:52.230Z,100038.66
2022-11-20T08:04:18.718Z,100039.34
2022-11-20T08:06:45.243Z,100053.47
2022-11-20T08:09:11.790Z,100043.00
2022-11-20T08:11:56.898Z,100044.94
2022-11-20T08:14:23.510Z,100041.91
2022-11-20T08:16:50.733Z,100027.88
2022-11-20T08:19:19.153Z,100030.47
2022-11-20T08:21:46.162Z,100032.66
2022-11-20T08:24:13.223Z,100024.09
2022-11-20T08:26:40.644Z,100029.44
2022-11-20T08:29:07.424Z,100030.69
2022-11-20T08:31:34.262Z,100030.59
2022-11-20T08:34:00.760Z,100025.13
2022-11-20T08:36:34.264Z,100025.28
2022-11-20T08:39:00.903Z,100027.28
2022-11-20T08:41:34.250Z,100020.59
2022-11-20T08:44:03.795Z,100024.19
2022-11-20T08:46:44.770Z,100016.97
2022-11-20T08:49:13.542Z,100004.00
2022-11-20T08:51:40.751Z,100009.19
2022-11-20T08:54:07.641Z,100005.38
2022-11-20T08:56:34.646Z,100003.22
2022-11-20T08:59:31.312Z,99993.19
2022-11-20T09:01:47.795Z,99991.97
2022-11-20T09:04:15.424Z,99998.88
2022-11-20T09:06:42.312Z,100010.28
2022-11-20T09:09:08.956Z,100003.91
2022-11-20T09:11:36.956Z,100004.25
2022-11-20T09:14:03.856Z,99995.34
2022-11-20T09:16:30.743Z,99998.41
2022-11-20T09:19:20.623Z,99992.94
2022-11-20T09:21:43.972Z,99992.22
2022-11-20T09:24:10.613Z,99996.88
2022-11-20T09:26:37.247Z,99984.19
2022-11-20T09:29:04.006Z,99988.00
2022-11-20T09:31:30.549Z,99986.88
2022-11-20T09:33:57.045Z,99983.94
2022-11-20T09:36:23.711Z,99979.94
2022-11-20T09:38:50.225Z,99972.88
2022-11-20T09:41:57.011Z,99976.16
2022-11-20T09:44:45.194Z,99971.13
2022-11-20T09:47:37.836Z,99974.56
2022-11-20T09:50:32.111Z,99974.16
2022-11-20T09:53:11.181Z,99976.06
2022-11-20T09:55:38.639Z,99984.28
2022-11-20T09:58:17.623Z,99974.69
2022-11-20T10:00:45.442Z,99965.19
2022-11-20T10:03:27.841Z,99966.44
2022-11-20T10:05:55.977Z,99964.66
2022-11-20T10:08:45.459Z,99954.91
2022-11-20T10:11:24.714Z,99948.88
2022-11-20T10:14:16.938Z,99951.97
2022-11-20T10:17:04.975Z,99952.38
2022-11-20T10:20:06.842Z,99959.91
2022-11-20T10:23:04.100Z,99957.41
2022-11-20T10:25:41.249Z,99950.75
2022-11-20T10:28:16.775Z,99941.75
2022-11-20T10:30:47.055Z,99947.78
2022-11-20T10:33:29.055Z,99939.19
2022-11-20T10:36:14.903Z,99943.19
2022-11-20T10:38:45.909Z,99938.97
2022-11-20T10:41:27.432Z,99942.41
2022-11-20T10:44:02.943Z,99944.53
2022-11-20T10:46:38.787Z,99935.41
2022-11-20T10:49:12.600Z,99933.38
2022-11-20T10:51:45.301Z,99939.47
2022-11-20T10:54:23.077Z,99940.66
2022-11-20T10:57:00.638Z,99932.38
2022-11-20T10:59:43.427Z,99931.75
2022-11-20T11:02:22.898Z,99943.34
2022-11-20T11:04:54.352Z,99929.91
2022-11-20T11:07:24.165Z,99937.63
2022-11-20T11:09:55.982Z,99929.06
2022-11-20T11:12:27.414Z,99920.88
2022-11-20T11:14:57.114Z,99912.00
2022-11-20T11:17:31.368Z,99914.69
2022-11-20T11:20:04.694Z,99917.72
2022-11-20T11:22:33.545Z,99921.09
2022-11-20T11:25:01.038Z,99915.38
2022-11-20T11:27:27.914Z,99910.19
2022-11-20T11:30:14.705Z,99907.47
2022-11-20T11:32:41.388Z,99912.34
2022-11-20T11:35:26.548Z,99906.31
2022-11-20T11:38:13.610Z,99901.25
2022-11-20T11:40:41.689Z,99904.97
2022-11-20T11:43:38.466Z,99899.06
2022-11-20T11:46:30.159Z,99900.25
2022-11-20T11:49:05.768Z,99900.06
2022-11-20T11:51:51.288Z,99899.06
2022-11-20T11:54:26.503Z,99887.97
2022-11-20T11:56:54.882Z,99894.53
2022-11-20T11:59:55.762Z,99890.97
2022-11-20T12:02:51.211Z,99890.34
2022-11-20T12:05:59.805Z,99896.22
2022-11-20T12:08:36.823Z,99881.75
2022-11-20T12:11:32.110Z,99890.31
2022-11-20T12:14:25.268Z,99887.78
2022-11-20T12:16:53.837Z,99876.69
2022-11-20T12:19:21.259Z,99872.81
2022-11-20T12:22:25.715Z,99869.09
2022-11-20T12:25:09.969Z,99864.53
2022-11-20T12:27:48.587Z,99860.38
2022-11-20T12:30:20.501Z,99862.22
2022-11-20T12:32:56.425Z,99852.28
2022-11-20T12:36:00.531Z,99856.66
2022-11-20T12:38:59.479Z,99848.91
2022-11-20T12:42:03.020Z,99842.69
2022-11-20T12:45:12.179Z,99839.50
2022-11-20T12:48:24.494Z,99841.34
2022-11-20T12:51:28.622Z,99829.91
2022-11-20T12:54:01.146Z,99826.78
2022-11-20T12:56:46.622Z,99832.16
2022-11-20T12:59:51.151Z,99828.13
2022-11-20T13:02:42.499Z,99827.53
2022-11-20T13:05:28.325Z,99809.31
2022-11-20T13:07:56.083Z,99819.78
2022-11-20T13:10:35.220Z,99810.28
2022-11-20T13:13:13.321Z,99793.19
2022-11-20T13:15:55.296Z,99799.06
2022-11-20T13:18:22.293Z,99803.91
2022-11-20T13:20:50.619Z,99790.50
2022-11-20T13:23:28.700Z,99797.72
2022-11-20T13:26:20.092Z,99796.22
2022-11-20T13:28:48.502Z,99793.03
2022-11-20T13:31:32.509Z,99787.84
2022-11-20T13:34:01.005Z,99797.09
2022-11-20T13:36:29.761Z,99800.81
2022-11-20T13:38:57.378Z,99799.97
2022-11-20T13:41:29.781Z,99795.41
2022-11-20T13:44:08.865Z,99798.50
2022-11-20T13:46:42.131Z,99798.97
2022-11-20T13:49:19.483Z,99802.53
2022-11-20T13:51:51.784Z,99797.31
2022-11-20T13:54:52.970Z,99787.00
2022-11-20T13:57:25.643Z,99787.25
2022-11-20T14:00:13.203Z,99775.97
2022-11-20T14:05:14.645Z,99770.75
2022-11-20T14:07:43.600Z,99772.31
2022-11-20T14:10:31.106Z,99764.41
2022-11-20T14:12:58.853Z,99768.13
2022-11-20T14:15:30.838Z,99764.22
2022-11-20T14:17:58.733Z,99759.06
2022-11-20T14:23:12.897Z,99744.50
2022-11-20T14:25:44.342Z,99759.72
2022-11-20T14:28:28.450Z,99766.13
2022-11-20T14:30:56.666Z,99763.78
2022-11-20T14:33:28.529Z,99771.31
2022-11-20T14:35:57.488Z,99770.81
2022-11-20T14:38:29.861Z,99761.75
2022-11-20T14:41:10.499Z,99765.59
2022-11-20T14:43:38.759Z,99766.31
2022-11-20T14:46:12.165Z,99765.78
2022-11-20T14:48:51.201Z,99762.94
2022-11-20T14:51:28.303Z,99759.91
2022-11-20T14:53:54.978Z,99752.00
2022-11-20T14:56:28.082Z,99757.25
2022-11-20T14:58:59.567Z,99749.00
2022-11-20T15:01:29.122Z,99740.78
2022-11-20T15:04:08.976Z,99748.16
2022-11-20T15:06:36.230Z,99733.03
2022-11-20T15:09:06.507Z,99738.94
2022-11-20T15:11:36.873Z,99735.91
2022-11-20T15:14:06.960Z,99749.00
2022-11-20T15:16:33.820Z,99749.34
2022-11-20T15:19:01.406Z,99749.34
2022-11-20T15:21:31.194Z,99741.59
2022-11-20T15:23:59.433Z,99748.66
2022-11-20T15:26:29.405Z,99743.28
2022-11-20T15:28:56.146Z,99747.63
2022-11-20T15:31:24.777Z,99750.00
2022-11-20T15:33:52.068Z,99755.69
2022-11-20T15:36:18.698Z,99744.28
2022-11-20T15:38:48.097Z,99746.81
2022-11-20T15:41:14.654Z,99747.63
2022-11-20T15:43:43.983Z,99740.22
2022-11-20T15:46:15.038Z,99747.63
2022-11-20T15:48:47.948Z,99745.44
2022-11-20T15:51:47.831Z,99738.22
2022-11-20T15:54:18.809Z,99745.25
2022-11-20T15:56:45.309Z,99737.84
2022-11-20T15:59:11.878Z,99737.81
2022-11-20T16:01:38.845Z,99732.44
2022-11-20T16:04:09.867Z,99735.13
2022-11-20T16:06:36.349Z,99737.41
2022-11-20T16:09:03.150Z,99731.72
2022-11-20T16:11:29.645Z,99730.16
2022-11-20T16:14:14.982Z,99720.22
2022-11-20T16:16:42.791Z,99718.22
2022-11-20T16:19:13.660Z,99715.72
2022-11-20T16:21:43.590Z,99718.53
2022-11-20T16:24:13.809Z,99729.59
2022-11-20T16:26:41.140Z,99733.13
2022-11-20T16:29:11.238Z,99728.72
2022-11-20T16:31:38.071Z,99733.41
2022-11-20T16:34:11.850Z,99725.47
2022-11-20T16:36:44.612Z,99728.66
2022-11-20T16:39:22.078Z,99723.28
2022-11-20T16:41:50.132Z,99742.03
2022-11-20T16:44:23.976Z,99727.78
2022-11-20T16:46:50.681Z,99728.09
2022-11-20T16:49:17.378Z,99731.25
2022-11-20T16:51:44.410Z,99727.72
2022-11-20T16:54:21.096Z,99731.06
2022-11-20T16:56:48.382Z,99721.31
2022-11-20T16:59:15.319Z,99709.06
2022-11-20T17:01:43.196Z,99711.75
2022-11-20T17:04:09.829Z,99707.25
2022-11-20T17:06:42.103Z,99711.25
2022-11-20T17:09:09.862Z,99721.50
2022-11-20T17:11:39.652Z,99708.88
2022-11-20T17:14:10.144Z,99711.06
2022-11-20T17:16:41.791Z,99722.25
2022-11-20T17:19:11.592Z,99722.34
2022-11-20T17:21:48.774Z,99718.16
2022-11-20T17:24:27.809Z,99719.53
2022-11-20T17:27:09.873Z,99730.38
2022-11-20T17:29:41.765Z,99727.22
2022-11-20T17:32:13.016Z,99741.09
2022-11-20T17:34:39.746Z,99735.03
2022-11-20T17:37:06.804Z,99725.38
2022-11-20T17:39:33.290Z,99730.00
2022-11-20T17:42:20.135Z,99719.66
2022-11-20T17:44:52.211Z,99721.31
2022-11-20T17:47:19.736Z,99719.44
2022-11-20T17:49:46.264Z,99714.59
2022-11-20T17:52:12.786Z,99701.88
2022-11-20T17:54:39.384Z,99705.53
2022-11-20T17:57:25.249Z,99698.69
2022-11-20T17:59:51.877Z,99700.03
2022-11-20T18:02:18.342Z,99703.56
2022-11-20T18:04:45.066Z,99698.56
2022-11-20T18:07:11.698Z,99690.09
2022-11-20T18:09:38.220Z,99685.53
2022-11-20T18:12:10.448Z,99682.47
2022-11-20T18:14:39.834Z,99677.38
2022-11-20T18:17:10.855Z,99671.72
2022-11-20T18:20:14.141Z,99656.59
2022-11-20T18:22:38.247Z,99652.34
2022-11-20T18:25:09.385Z,99653.88
2022-11-20T18:27:36.089Z,99659.25
2022-11-20T18:30:02.655Z,99662.81
2022-11-20T18:32:29.178Z,99665.41
2022-11-20T18:34:55.684Z,99659.59
2022-11-20T18:37:22.469Z,99661.25
2022-11-20T18:39:50.698Z,99664.72
2022-11-20T18:42:35.950Z,99655.88
2022-11-20T18:45:06.339Z,99657.38
2022-11-20T18:47:37.466Z,99656.69
2022-11-20T18:50:04.496Z,99647.63
2022-11-20T18:52:34.228Z,99645.09
2022-11-20T18:55:05.773Z,99644.25
2022-11-20T18:57:32.789Z,99649.47
2022-11-20T19:00:09.346Z,99639.88
2022-11-20T19:02:41.461Z,99638.34
2022-11-20T19:05:13.552Z,99640.47
2022-11-20T19:07:40.381Z,99633.28
2022-11-20T19:10:07.563Z,99628.56
2022-11-20T19:12:37.018Z,99616.50
2022-11-20T19:15:06.842Z,99616.81
2022-11-20T19:17:36.451Z,99614.28
2022-11-20T19:20:07.083Z,99611.75
2022-11-20T19:22:36.508Z,99601.38
2022-11-20T19:25:03.131Z,99599.69
2022-11-20T19:27:29.708Z,99597.84
2022-11-20T19:30:03.106Z,99604.06
2022-11-20T19:32:30.029Z,99604.34
2022-11-20T19:34:56.666Z,99605.38
2022-11-20T19:37:25.259Z,99589.91
2022-11-20T19:39:51.777Z,99592.28
2022-11-20T19:42:18.647Z,99596.13
2022-11-20T19:44:45.123Z,99597.25
2022-11-20T19:47:14.503Z,99597.44
2022-11-20T19:49:44.977Z,99606.91
2022-11-20T19:52:11.506Z,99593.91
2022-11-20T19:54:38.078Z,99589.63
2022-11-20T19:57:04.932Z,99592.75
2022-11-20T19:59:31.461Z,99582.34
2022-11-20T20:01:58.416Z,99579.84
2022-11-20T20:04:28.017Z,99577.63
2022-11-20T20:06:58.211Z,99576.75
2022-11-20T20:09:26.956Z,99582.31
2022-11-20T20:11:53.730Z,99582.47
2022-11-20T20:14:23.187Z,99580.63
2022-11-20T20:16:49.728Z,99584.47
2022-11-20T20:19:16.624Z,99591.66
2022-11-20T20:21:44.097Z,99592.13
2022-11-20T20:24:11.965Z,99587.16
2022-11-20T20:26:38.704Z,99586.44
2022-11-20T20:29:05.232Z,99592.81
2022-11-20T20:31:33.680Z,99589.28
2022-11-20T20:34:03.982Z,99597.84
2022-11-20T20:36:30.658Z,99590.97
2022-11-20T20:39:05.130Z,99591.31
2022-11-20T20:41:31.852Z,99586.97
2022-11-20T20:44:16.905Z,99574.88
2022-11-20T20:46:43.908Z,99587.03
2022-11-20T20:49:10.502Z,99582.34
2022-11-20T20:51:37.343Z,99586.25
2022-11-20T20:54:04.583Z,99578.22
2022-11-20T20:56:31.218Z,99574.88
2022-11-20T20:58:57.974Z,99571.94
2022-11-20T21:01:28.728Z,99570.06
2022-11-20T21:03:57.378Z,99566.19
2022-11-20T21:06:24.625Z,99568.44
2022-11-20T21:08:51.124Z,99560.94
2022-11-20T21:11:19.228Z,99561.25
2022-11-20T21:13:47.111Z,99570.03
2022-11-20T21:16:15.915Z,99565.56
2022-11-20T21:18:42.508Z,99563.75
2022-11-20T21:21:30.869Z,99558.72
2022-11-20T21:24:08.009Z,99561.91
2022-11-20T21:26:34.495Z,99559.63
2022-11-20T21:29:01.095Z,99550.56
2022-11-20T21:31:28.596Z,99550.91
2022-11-20T21:33:56.816Z,99548.56
2022-11-20T21:36:28.837Z,99554.13
2022-11-20T21:38:56.550Z,99556.16
2022-11-20T21:41:24.969Z,99560.16
2022-11-20T21:44:23.655Z,99563.88
2022-11-20T21:46:40.768Z,99576.78
2022-11-20T21:49:07.805Z,99562.88
2022-11-20T21:51:34.405Z,99573.63
2022-11-20T21:54:01.397Z,99580.81
2022-11-20T21:56:27.979Z,99581.66
2022-11-20T21:58:55.244Z,99580.19
2022-11-20T22:01:26.023Z,99572.44
2022-11-20T22:03:57.249Z,99571.47
2022-11-20T22:06:32.446Z,99567.78
2022-11-20T22:08:59.274Z,99564.41
2022-11-20T22:11:25.923Z,99570.63
2022-11-20T22:14:11.319Z,99564.09
2022-11-20T22:16:38.358Z,99557.59
2022-11-20T22:19:06.200Z,99563.94
2022-11-20T22:21:33.038Z,99563.13
2022-11-20T22:24:00.133Z,99562.13
2022-11-20T22:26:29.457Z,99562.28
2022-11-20T22:28:58.382Z,99568.66
2022-11-20T22:31:27.310Z,99572.69
2022-11-20T22:33:54.131Z,99570.13
2022-11-20T22:36:26.431Z,99562.91
2022-11-20T22:38:52.900Z,99565.75
2022-11-20T22:41:25.199Z,99561.91
2022-11-20T22:44:02.006Z,99566.25
2022-11-20T22:46:30.703Z,99562.53
2022-11-20T22:49:02.899Z,99558.50
2022-11-20T22:51:35.198Z,99560.88
2022-11-20T22:54:03.679Z,99562.63
2022-11-20T22:56:30.411Z,99561.22
2022-11-20T22:58:56.987Z,99550.63
2022-11-20T23:01:34.348Z,99550.56
2022-11-20T23:04:03.412Z,99559.63
2022-11-20T23:06:32.130Z,99550.91
2022-11-20T23:08:58.683Z,99555.06
2022-11-20T23:11:30.071Z,99556.22
2022-11-20T23:14:02.902Z,99561.09
2022-11-20T23:16:30.454Z,99561.75
2022-11-20T23:19:01.722Z,99554.69
2022-11-20T23:21:28.754Z,99555.31
2022-11-20T23:23:59.794Z,99552.97
2022-11-20T23:26:32.336Z,99546.31
2022-11-20T23:29:00.933Z,99549.63
2022-11-20T23:31:33.003Z,99556.97
2022-11-20T23:34:00.342Z,99562.09
2022-11-20T23:36:27.219Z,99569.97
2022-11-20T23:38:53.829Z,99568.59
2022-11-20T23:41:20.466Z,99565.94
2022-11-20T23:43:46.931Z,99570.31
2022-11-20T23:46:16.527Z,99570.59
2022-11-20T23:48:45.068Z,99575.00
2022-11-20T23:51:11.934Z,99576.47
2022-11-20T23:53:38.531Z,99574.34
2022-11-20T23:56:05.540Z,99577.84
2022-11-20T23:58:34.321Z,99574.16
